sensor_id;sensor_type;location;lat;lon;timestamp;P1;durP1;ratioP1;P2;durP2;ratioP2
18176;SDS011;9213;50.858;3.964;2022-08-19T00:00:09;49.15;;;36.42;;
18176;SDS011;9213;50.858;3.964;2022-08-19T00:02:41;48.97;;;37.45;;
18176;SDS011;9213;50.858;3.964;2022-08-19T00:05:08;50.13;;;36.35;;
18176;SDS011;9213;50.858;3.964;2022-08-19T00:07:35;50.70;;;37.33;;
18176;SDS011;9213;50.858;3.964;2022-08-19T00:10:04;44.53;;;34.17;;
18176;SDS011;9213;50.858;3.964;2022-08-19T00:12:32;42.08;;;33.65;;
18176;SDS011;9213;50.858;3.964;2022-08-19T00:15:00;43.70;;;34.53;;
18176;SDS011;9213;50.858;3.964;2022-08-19T00:17:28;43.70;;;33.63;;
18176;SDS011;9213;50.858;3.964;2022-08-19T00:19:55;47.55;;;33.92;;
18176;SDS011;9213;50.858;3.964;2022-08-19T00:22:22;50.30;;;34.97;;
18176;SDS011;9213;50.858;3.964;2022-08-19T00:24:49;48.05;;;35.60;;
18176;SDS011;9213;50.858;3.964;2022-08-19T00:27:16;46.55;;;35.05;;
18176;SDS011;9213;50.858;3.964;2022-08-19T00:29:43;47.90;;;33.60;;
18176;SDS011;9213;50.858;3.964;2022-08-19T00:32:10;46.60;;;35.05;;
18176;SDS011;9213;50.858;3.964;2022-08-19T00:34:38;44.50;;;32.67;;
18176;SDS011;9213;50.858;3.964;2022-08-19T00:37:05;44.42;;;33.20;;
18176;SDS011;9213;50.858;3.964;2022-08-19T00:39:32;43.45;;;33.42;;
18176;SDS011;9213;50.858;3.964;2022-08-19T00:41:59;43.33;;;33.78;;
18176;SDS011;9213;50.858;3.964;2022-08-19T00:44:26;47.47;;;35.67;;
18176;SDS011;9213;50.858;3.964;2022-08-19T00:46:56;42.70;;;33.83;;
18176;SDS011;9213;50.858;3.964;2022-08-19T00:49:26;50.50;;;35.38;;
18176;SDS011;9213;50.858;3.964;2022-08-19T00:51:57;48.72;;;34.67;;
18176;SDS011;9213;50.858;3.964;2022-08-19T00:54:27;44.25;;;34.90;;
18176;SDS011;9213;50.858;3.964;2022-08-19T00:56:56;46.35;;;34.53;;
18176;SDS011;9213;50.858;3.964;2022-08-19T00:59:24;44.20;;;33.13;;
18176;SDS011;9213;50.858;3.964;2022-08-19T01:01:51;45.97;;;34.28;;
18176;SDS011;9213;50.858;3.964;2022-08-19T01:04:18;39.03;;;30.90;;
18176;SDS011;9213;50.858;3.964;2022-08-19T01:06:45;39.22;;;28.52;;
18176;SDS011;9213;50.858;3.964;2022-08-19T01:09:14;41.28;;;28.52;;
18176;SDS011;9213;50.858;3.964;2022-08-19T01:11:41;37.58;;;29.17;;
18176;SDS011;9213;50.858;3.964;2022-08-19T01:14:10;37.13;;;28.30;;
18176;SDS011;9213;50.858;3.964;2022-08-19T01:16:39;39.88;;;29.70;;
18176;SDS011;9213;50.858;3.964;2022-08-19T01:19:09;34.50;;;27.48;;
18176;SDS011;9213;50.858;3.964;2022-08-19T01:21:44;34.38;;;27.30;;
18176;SDS011;9213;50.858;3.964;2022-08-19T01:24:18;35.22;;;27.75;;
18176;SDS011;9213;50.858;3.964;2022-08-19T01:26:45;37.63;;;28.08;;
18176;SDS011;9213;50.858;3.964;2022-08-19T01:29:12;41.13;;;29.45;;
18176;SDS011;9213;50.858;3.964;2022-08-19T01:31:39;38.97;;;28.80;;
18176;SDS011;9213;50.858;3.964;2022-08-19T01:34:06;42.00;;;29.48;;
18176;SDS011;9213;50.858;3.964;2022-08-19T01:36:35;39.05;;;30.13;;
18176;SDS011;9213;50.858;3.964;2022-08-19T01:39:05;38.28;;;29.38;;
18176;SDS011;9213;50.858;3.964;2022-08-19T01:41:35;37.78;;;28.92;;
18176;SDS011;9213;50.858;3.964;2022-08-19T01:44:04;38.95;;;29.38;;
18176;SDS011;9213;50.858;3.964;2022-08-19T01:46:32;40.40;;;28.08;;
18176;SDS011;9213;50.858;3.964;2022-08-19T01:48:59;36.88;;;27.95;;
18176;SDS011;9213;50.858;3.964;2022-08-19T01:51:26;36.25;;;27.10;;
18176;SDS011;9213;50.858;3.964;2022-08-19T01:53:53;35.93;;;26.60;;
18176;SDS011;9213;50.858;3.964;2022-08-19T01:56:21;37.20;;;25.50;;
18176;SDS011;9213;50.858;3.964;2022-08-19T01:58:51;37.78;;;26.83;;
18176;SDS011;9213;50.858;3.964;2022-08-19T02:01:21;37.45;;;26.35;;
18176;SDS011;9213;50.858;3.964;2022-08-19T02:03:48;36.80;;;26.27;;
18176;SDS011;9213;50.858;3.964;2022-08-19T02:06:15;32.70;;;23.88;;
18176;SDS011;9213;50.858;3.964;2022-08-19T02:08:42;31.70;;;23.92;;
18176;SDS011;9213;50.858;3.964;2022-08-19T02:11:17;34.83;;;24.98;;
18176;SDS011;9213;50.858;3.964;2022-08-19T02:13:45;32.47;;;24.83;;
18176;SDS011;9213;50.858;3.964;2022-08-19T02:16:15;37.28;;;25.67;;
18176;SDS011;9213;50.858;3.964;2022-08-19T02:18:42;33.03;;;23.80;;
18176;SDS011;9213;50.858;3.964;2022-08-19T02:21:09;34.00;;;23.02;;
18176;SDS011;9213;50.858;3.964;2022-08-19T02:23:37;33.97;;;24.00;;
18176;SDS011;9213;50.858;3.964;2022-08-19T02:26:04;34.60;;;22.92;;
18176;SDS011;9213;50.858;3.964;2022-08-19T02:28:31;34.72;;;21.67;;
18176;SDS011;9213;50.858;3.964;2022-08-19T02:30:58;33.00;;;22.52;;
18176;SDS011;9213;50.858;3.964;2022-08-19T02:33:28;33.05;;;21.85;;
18176;SDS011;9213;50.858;3.964;2022-08-19T02:35:55;32.83;;;22.07;;
18176;SDS011;9213;50.858;3.964;2022-08-19T02:38:22;36.30;;;21.92;;
18176;SDS011;9213;50.858;3.964;2022-08-19T02:40:51;35.30;;;22.50;;
18176;SDS011;9213;50.858;3.964;2022-08-19T02:43:20;34.05;;;21.48;;
18176;SDS011;9213;50.858;3.964;2022-08-19T02:45:47;31.95;;;22.58;;
18176;SDS011;9213;50.858;3.964;2022-08-19T02:48:15;33.55;;;22.58;;
18176;SDS011;9213;50.858;3.964;2022-08-19T02:50:44;29.80;;;21.85;;
18176;SDS011;9213;50.858;3.964;2022-08-19T02:53:12;33.70;;;21.40;;
18176;SDS011;9213;50.858;3.964;2022-08-19T02:55:42;34.05;;;23.08;;
18176;SDS011;9213;50.858;3.964;2022-08-19T02:58:10;35.60;;;21.48;;
18176;SDS011;9213;50.858;3.964;2022-08-19T03:00:40;35.70;;;21.83;;
18176;SDS011;9213;50.858;3.964;2022-08-19T03:03:09;32.87;;;22.87;;
18176;SDS011;9213;50.858;3.964;2022-08-19T03:05:36;32.97;;;22.83;;
18176;SDS011;9213;50.858;3.964;2022-08-19T03:08:04;36.23;;;22.60;;
18176;SDS011;9213;50.858;3.964;2022-08-19T03:10:31;36.83;;;22.50;;
18176;SDS011;9213;50.858;3.964;2022-08-19T03:12:59;34.77;;;22.73;;
18176;SDS011;9213;50.858;3.964;2022-08-19T03:15:25;32.45;;;21.90;;
18176;SDS011;9213;50.858;3.964;2022-08-19T03:17:52;31.80;;;22.47;;
18176;SDS011;9213;50.858;3.964;2022-08-19T03:20:19;35.03;;;21.93;;
18176;SDS011;9213;50.858;3.964;2022-08-19T03:22:46;33.40;;;22.47;;
18176;SDS011;9213;50.858;3.964;2022-08-19T03:25:14;32.87;;;21.83;;
18176;SDS011;9213;50.858;3.964;2022-08-19T03:27:41;31.60;;;22.23;;
18176;SDS011;9213;50.858;3.964;2022-08-19T03:30:09;34.67;;;22.05;;
18176;SDS011;9213;50.858;3.964;2022-08-19T03:32:37;37.05;;;22.33;;
18176;SDS011;9213;50.858;3.964;2022-08-19T03:35:04;31.80;;;22.27;;
18176;SDS011;9213;50.858;3.964;2022-08-19T03:37:31;35.03;;;22.23;;
18176;SDS011;9213;50.858;3.964;2022-08-19T03:39:58;35.30;;;21.70;;
18176;SDS011;9213;50.858;3.964;2022-08-19T03:42:26;33.80;;;21.67;;
18176;SDS011;9213;50.858;3.964;2022-08-19T03:44:53;34.83;;;22.07;;
18176;SDS011;9213;50.858;3.964;2022-08-19T03:47:20;35.95;;;22.80;;
18176;SDS011;9213;50.858;3.964;2022-08-19T03:49:47;37.67;;;22.33;;
18176;SDS011;9213;50.858;3.964;2022-08-19T03:52:14;36.27;;;22.40;;
18176;SDS011;9213;50.858;3.964;2022-08-19T03:54:41;32.63;;;21.70;;
18176;SDS011;9213;50.858;3.964;2022-08-19T03:57:11;30.77;;;21.97;;
18176;SDS011;9213;50.858;3.964;2022-08-19T03:59:39;31.67;;;21.30;;
18176;SDS011;9213;50.858;3.964;2022-08-19T04:02:08;33.03;;;21.60;;
18176;SDS011;9213;50.858;3.964;2022-08-19T04:04:37;31.17;;;21.60;;
18176;SDS011;9213;50.858;3.964;2022-08-19T04:07:05;32.73;;;22.63;;
18176;SDS011;9213;50.858;3.964;2022-08-19T04:09:33;35.17;;;21.60;;
18176;SDS011;9213;50.858;3.964;2022-08-19T04:12:01;34.70;;;22.13;;
18176;SDS011;9213;50.858;3.964;2022-08-19T04:14:30;34.23;;;22.37;;
18176;SDS011;9213;50.858;3.964;2022-08-19T04:17:00;30.90;;;20.70;;
18176;SDS011;9213;50.858;3.964;2022-08-19T04:19:30;32.37;;;21.53;;
18176;SDS011;9213;50.858;3.964;2022-08-19T04:21:57;33.03;;;22.02;;
18176;SDS011;9213;50.858;3.964;2022-08-19T04:24:25;31.48;;;21.35;;
18176;SDS011;9213;50.858;3.964;2022-08-19T04:26:52;33.83;;;21.87;;
18176;SDS011;9213;50.858;3.964;2022-08-19T04:29:20;33.33;;;21.63;;
18176;SDS011;9213;50.858;3.964;2022-08-19T04:31:50;34.43;;;21.07;;
18176;SDS011;9213;50.858;3.964;2022-08-19T04:34:20;34.90;;;21.07;;
18176;SDS011;9213;50.858;3.964;2022-08-19T04:36:49;34.13;;;21.30;;
18176;SDS011;9213;50.858;3.964;2022-08-19T04:39:17;39.07;;;22.73;;
18176;SDS011;9213;50.858;3.964;2022-08-19T04:41:45;37.37;;;22.63;;
18176;SDS011;9213;50.858;3.964;2022-08-19T04:44:30;36.33;;;21.47;;
18176;SDS011;9213;50.858;3.964;2022-08-19T04:46:57;34.40;;;20.83;;
18176;SDS011;9213;50.858;3.964;2022-08-19T04:49:26;37.50;;;20.97;;
18176;SDS011;9213;50.858;3.964;2022-08-19T04:51:53;35.13;;;20.87;;
18176;SDS011;9213;50.858;3.964;2022-08-19T04:54:22;28.67;;;20.57;;
18176;SDS011;9213;50.858;3.964;2022-08-19T04:56:50;32.63;;;19.63;;
18176;SDS011;9213;50.858;3.964;2022-08-19T04:59:18;31.13;;;19.97;;
18176;SDS011;9213;50.858;3.964;2022-08-19T05:01:46;32.03;;;19.37;;
18176;SDS011;9213;50.858;3.964;2022-08-19T05:04:15;28.20;;;19.30;;
18176;SDS011;9213;50.858;3.964;2022-08-19T05:06:45;30.47;;;19.10;;
18176;SDS011;9213;50.858;3.964;2022-08-19T05:09:13;28.97;;;19.10;;
18176;SDS011;9213;50.858;3.964;2022-08-19T05:11:41;31.50;;;19.33;;
18176;SDS011;9213;50.858;3.964;2022-08-19T05:14:10;29.37;;;19.53;;
18176;SDS011;9213;50.858;3.964;2022-08-19T05:16:37;29.33;;;19.43;;
18176;SDS011;9213;50.858;3.964;2022-08-19T05:19:05;30.63;;;19.33;;
18176;SDS011;9213;50.858;3.964;2022-08-19T05:21:50;31.50;;;18.87;;
18176;SDS011;9213;50.858;3.964;2022-08-19T05:24:35;29.50;;;18.80;;
18176;SDS011;9213;50.858;3.964;2022-08-19T05:27:03;32.33;;;18.30;;
18176;SDS011;9213;50.858;3.964;2022-08-19T05:29:30;32.33;;;17.80;;
18176;SDS011;9213;50.858;3.964;2022-08-19T05:32:00;31.07;;;18.70;;
18176;SDS011;9213;50.858;3.964;2022-08-19T05:34:27;25.97;;;17.63;;
18176;SDS011;9213;50.858;3.964;2022-08-19T05:36:56;27.80;;;18.37;;
18176;SDS011;9213;50.858;3.964;2022-08-19T05:39:25;30.77;;;18.77;;
18176;SDS011;9213;50.858;3.964;2022-08-19T05:41:55;27.67;;;17.67;;
18176;SDS011;9213;50.858;3.964;2022-08-19T05:44:24;33.57;;;17.37;;
18176;SDS011;9213;50.858;3.964;2022-08-19T05:46:51;25.67;;;17.27;;
18176;SDS011;9213;50.858;3.964;2022-08-19T05:49:20;31.43;;;18.57;;
18176;SDS011;9213;50.858;3.964;2022-08-19T05:51:50;27.97;;;17.87;;
18176;SDS011;9213;50.858;3.964;2022-08-19T05:54:19;35.27;;;19.17;;
18176;SDS011;9213;50.858;3.964;2022-08-19T05:56:48;24.23;;;17.07;;
18176;SDS011;9213;50.858;3.964;2022-08-19T05:59:16;25.87;;;17.10;;
18176;SDS011;9213;50.858;3.964;2022-08-19T06:01:45;34.58;;;17.52;;
18176;SDS011;9213;50.858;3.964;2022-08-19T06:04:15;25.70;;;16.58;;
18176;SDS011;9213;50.858;3.964;2022-08-19T06:06:43;26.58;;;16.52;;
18176;SDS011;9213;50.858;3.964;2022-08-19T06:09:11;26.17;;;16.63;;
18176;SDS011;9213;50.858;3.964;2022-08-19T06:11:40;21.80;;;15.57;;
18176;SDS011;9213;50.858;3.964;2022-08-19T06:14:09;23.58;;;15.05;;
18176;SDS011;9213;50.858;3.964;2022-08-19T06:16:38;26.42;;;16.10;;
18176;SDS011;9213;50.858;3.964;2022-08-19T06:19:07;23.10;;;14.73;;
18176;SDS011;9213;50.858;3.964;2022-08-19T06:21:36;24.25;;;15.85;;
18176;SDS011;9213;50.858;3.964;2022-08-19T06:24:05;22.60;;;14.80;;
18176;SDS011;9213;50.858;3.964;2022-08-19T06:26:36;23.40;;;15.07;;
18176;SDS011;9213;50.858;3.964;2022-08-19T06:29:06;23.25;;;15.65;;
18176;SDS011;9213;50.858;3.964;2022-08-19T06:31:35;21.90;;;14.10;;
18176;SDS011;9213;50.858;3.964;2022-08-19T06:34:04;25.20;;;14.23;;
18176;SDS011;9213;50.858;3.964;2022-08-19T06:36:32;24.60;;;14.50;;
18176;SDS011;9213;50.858;3.964;2022-08-19T06:39:03;20.45;;;13.55;;
18176;SDS011;9213;50.858;3.964;2022-08-19T06:41:34;21.85;;;13.55;;
18176;SDS011;9213;50.858;3.964;2022-08-19T06:44:02;19.60;;;14.10;;
18176;SDS011;9213;50.858;3.964;2022-08-19T06:46:31;19.45;;;13.07;;
18176;SDS011;9213;50.858;3.964;2022-08-19T06:48:58;18.35;;;12.93;;
18176;SDS011;9213;50.858;3.964;2022-08-19T06:51:25;18.05;;;12.27;;
18176;SDS011;9213;50.858;3.964;2022-08-19T06:53:52;15.07;;;11.85;;
18176;SDS011;9213;50.858;3.964;2022-08-19T06:56:22;18.25;;;13.02;;
18176;SDS011;9213;50.858;3.964;2022-08-19T06:58:55;21.00;;;12.48;;
18176;SDS011;9213;50.858;3.964;2022-08-19T07:01:22;17.77;;;12.50;;
18176;SDS011;9213;50.858;3.964;2022-08-19T07:03:51;18.90;;;11.00;;
18176;SDS011;9213;50.858;3.964;2022-08-19T07:06:18;20.10;;;11.85;;
18176;SDS011;9213;50.858;3.964;2022-08-19T07:08:45;17.70;;;11.38;;
18176;SDS011;9213;50.858;3.964;2022-08-19T07:11:16;24.83;;;11.50;;
18176;SDS011;9213;50.858;3.964;2022-08-19T07:13:44;17.45;;;10.77;;
18176;SDS011;9213;50.858;3.964;2022-08-19T07:16:14;18.98;;;11.35;;
18176;SDS011;9213;50.858;3.964;2022-08-19T07:18:44;15.75;;;11.48;;
18176;SDS011;9213;50.858;3.964;2022-08-19T07:21:14;16.48;;;10.50;;
18176;SDS011;9213;50.858;3.964;2022-08-19T07:23:43;15.77;;;11.05;;
18176;SDS011;9213;50.858;3.964;2022-08-19T07:26:11;19.55;;;10.85;;
18176;SDS011;9213;50.858;3.964;2022-08-19T07:28:41;17.13;;;11.30;;
18176;SDS011;9213;50.858;3.964;2022-08-19T07:31:10;17.08;;;10.80;;
18176;SDS011;9213;50.858;3.964;2022-08-19T07:33:37;16.33;;;11.27;;
18176;SDS011;9213;50.858;3.964;2022-08-19T07:36:05;17.10;;;10.93;;
18176;SDS011;9213;50.858;3.964;2022-08-19T07:38:38;20.02;;;11.40;;
18176;SDS011;9213;50.858;3.964;2022-08-19T07:41:07;18.77;;;11.48;;
18176;SDS011;9213;50.858;3.964;2022-08-19T07:43:35;18.77;;;11.25;;
18176;SDS011;9213;50.858;3.964;2022-08-19T07:46:03;16.67;;;10.43;;
18176;SDS011;9213;50.858;3.964;2022-08-19T07:48:30;16.17;;;11.00;;
18176;SDS011;9213;50.858;3.964;2022-08-19T07:50:59;16.42;;;11.68;;
18176;SDS011;9213;50.858;3.964;2022-08-19T07:53:28;18.80;;;12.20;;
18176;SDS011;9213;50.858;3.964;2022-08-19T07:55:57;19.83;;;12.00;;
18176;SDS011;9213;50.858;3.964;2022-08-19T07:58:29;20.02;;;11.95;;
18176;SDS011;9213;50.858;3.964;2022-08-19T08:00:57;15.43;;;11.18;;
18176;SDS011;9213;50.858;3.964;2022-08-19T08:03:25;18.00;;;11.43;;
18176;SDS011;9213;50.858;3.964;2022-08-19T08:06:07;17.02;;;11.88;;
18176;SDS011;9213;50.858;3.964;2022-08-19T08:08:51;18.05;;;11.35;;
18176;SDS011;9213;50.858;3.964;2022-08-19T08:11:37;15.70;;;11.05;;
18176;SDS011;9213;50.858;3.964;2022-08-19T08:14:04;15.90;;;10.77;;
18176;SDS011;9213;50.858;3.964;2022-08-19T08:16:33;16.88;;;10.85;;
18176;SDS011;9213;50.858;3.964;2022-08-19T08:19:00;15.68;;;10.80;;
18176;SDS011;9213;50.858;3.964;2022-08-19T08:21:27;17.08;;;10.50;;
18176;SDS011;9213;50.858;3.964;2022-08-19T08:23:54;15.00;;;10.75;;
18176;SDS011;9213;50.858;3.964;2022-08-19T08:26:21;14.00;;;10.07;;
18176;SDS011;9213;50.858;3.964;2022-08-19T08:28:51;14.35;;;10.00;;
18176;SDS011;9213;50.858;3.964;2022-08-19T08:31:18;14.40;;;9.90;;
18176;SDS011;9213;50.858;3.964;2022-08-19T08:33:45;16.70;;;10.55;;
18176;SDS011;9213;50.858;3.964;2022-08-19T08:36:13;14.90;;;10.18;;
18176;SDS011;9213;50.858;3.964;2022-08-19T08:38:40;13.55;;;9.93;;
18176;SDS011;9213;50.858;3.964;2022-08-19T08:41:12;12.80;;;9.43;;
18176;SDS011;9213;50.858;3.964;2022-08-19T08:43:46;14.02;;;9.45;;
18176;SDS011;9213;50.858;3.964;2022-08-19T08:46:18;12.43;;;9.32;;
18176;SDS011;9213;50.858;3.964;2022-08-19T08:48:49;14.27;;;9.85;;
18176;SDS011;9213;50.858;3.964;2022-08-19T08:51:20;14.27;;;9.68;;
18176;SDS011;9213;50.858;3.964;2022-08-19T08:53:52;13.18;;;9.77;;
18176;SDS011;9213;50.858;3.964;2022-08-19T08:56:19;15.45;;;9.95;;
18176;SDS011;9213;50.858;3.964;2022-08-19T08:58:49;16.17;;;9.90;;
18176;SDS011;9213;50.858;3.964;2022-08-19T09:01:24;13.73;;;10.02;;
18176;SDS011;9213;50.858;3.964;2022-08-19T09:03:52;14.63;;;10.40;;
18176;SDS011;9213;50.858;3.964;2022-08-19T09:06:22;16.48;;;9.48;;
18176;SDS011;9213;50.858;3.964;2022-08-19T09:08:59;14.48;;;9.30;;
18176;SDS011;9213;50.858;3.964;2022-08-19T09:11:33;13.45;;;9.35;;
18176;SDS011;9213;50.858;3.964;2022-08-19T09:14:12;11.10;;;8.90;;
18176;SDS011;9213;50.858;3.964;2022-08-19T09:16:48;13.45;;;9.45;;
18176;SDS011;9213;50.858;3.964;2022-08-19T09:19:16;11.70;;;8.70;;
18176;SDS011;9213;50.858;3.964;2022-08-19T09:21:43;13.57;;;8.57;;
18176;SDS011;9213;50.858;3.964;2022-08-19T09:24:11;12.80;;;9.00;;
18176;SDS011;9213;50.858;3.964;2022-08-19T09:26:38;10.30;;;7.85;;
18176;SDS011;9213;50.858;3.964;2022-08-19T09:29:05;10.45;;;7.22;;
18176;SDS011;9213;50.858;3.964;2022-08-19T09:31:32;11.63;;;6.90;;
18176;SDS011;9213;50.858;3.964;2022-08-19T09:34:01;8.73;;;6.85;;
18176;SDS011;9213;50.858;3.964;2022-08-19T09:36:29;8.93;;;7.30;;
18176;SDS011;9213;50.858;3.964;2022-08-19T09:38:58;11.15;;;7.50;;
18176;SDS011;9213;50.858;3.964;2022-08-19T09:41:26;10.13;;;6.90;;
18176;SDS011;9213;50.858;3.964;2022-08-19T09:43:53;10.73;;;7.07;;
18176;SDS011;9213;50.858;3.964;2022-08-19T09:46:22;8.70;;;6.72;;
18176;SDS011;9213;50.858;3.964;2022-08-19T09:48:51;9.02;;;6.35;;
18176;SDS011;9213;50.858;3.964;2022-08-19T09:51:21;8.32;;;6.45;;
18176;SDS011;9213;50.858;3.964;2022-08-19T09:53:49;9.68;;;6.80;;
18176;SDS011;9213;50.858;3.964;2022-08-19T09:56:19;7.22;;;6.25;;
18176;SDS011;9213;50.858;3.964;2022-08-19T09:58:47;9.65;;;6.30;;
18176;SDS011;9213;50.858;3.964;2022-08-19T10:01:15;11.38;;;6.72;;
18176;SDS011;9213;50.858;3.964;2022-08-19T10:03:46;10.93;;;6.80;;
18176;SDS011;9213;50.858;3.964;2022-08-19T10:06:15;9.23;;;6.82;;
18176;SDS011;9213;50.858;3.964;2022-08-19T10:08:45;8.00;;;6.13;;
18176;SDS011;9213;50.858;3.964;2022-08-19T10:11:12;9.13;;;6.93;;
18176;SDS011;9213;50.858;3.964;2022-08-19T10:13:41;8.70;;;7.43;;
18176;SDS011;9213;50.858;3.964;2022-08-19T10:16:10;9.73;;;7.28;;
18176;SDS011;9213;50.858;3.964;2022-08-19T10:18:38;8.90;;;7.13;;
18176;SDS011;9213;50.858;3.964;2022-08-19T10:21:07;8.85;;;6.47;;
18176;SDS011;9213;50.858;3.964;2022-08-19T10:23:36;9.38;;;7.13;;
18176;SDS011;9213;50.858;3.964;2022-08-19T10:26:05;11.10;;;7.53;;
18176;SDS011;9213;50.858;3.964;2022-08-19T10:28:33;8.68;;;7.40;;
18176;SDS011;9213;50.858;3.964;2022-08-19T10:31:05;8.07;;;7.22;;
18176;SDS011;9213;50.858;3.964;2022-08-19T10:33:33;10.90;;;7.13;;
18176;SDS011;9213;50.858;3.964;2022-08-19T10:36:00;10.90;;;7.10;;
18176;SDS011;9213;50.858;3.964;2022-08-19T10:38:27;11.23;;;7.28;;
18176;SDS011;9213;50.858;3.964;2022-08-19T10:40:55;9.15;;;7.20;;
18176;SDS011;9213;50.858;3.964;2022-08-19T10:43:23;9.98;;;7.35;;
18176;SDS011;9213;50.858;3.964;2022-08-19T10:45:53;10.07;;;7.50;;
18176;SDS011;9213;50.858;3.964;2022-08-19T10:48:24;9.10;;;7.78;;
18176;SDS011;9213;50.858;3.964;2022-08-19T10:50:51;8.85;;;7.95;;
18176;SDS011;9213;50.858;3.964;2022-08-19T10:53:35;9.45;;;8.30;;
18176;SDS011;9213;50.858;3.964;2022-08-19T10:56:02;9.27;;;8.43;;
18176;SDS011;9213;50.858;3.964;2022-08-19T10:58:48;10.18;;;9.20;;
18176;SDS011;9213;50.858;3.964;2022-08-19T11:01:15;11.60;;;8.93;;
18176;SDS011;9213;50.858;3.964;2022-08-19T11:03:42;11.52;;;9.63;;
18176;SDS011;9213;50.858;3.964;2022-08-19T11:06:10;9.93;;;9.00;;
18176;SDS011;9213;50.858;3.964;2022-08-19T11:08:37;9.75;;;8.60;;
18176;SDS011;9213;50.858;3.964;2022-08-19T11:11:05;9.57;;;8.63;;
18176;SDS011;9213;50.858;3.964;2022-08-19T11:13:34;9.52;;;8.48;;
18176;SDS011;9213;50.858;3.964;2022-08-19T11:16:05;9.77;;;8.75;;
18176;SDS011;9213;50.858;3.964;2022-08-19T11:18:34;10.15;;;8.88;;
18176;SDS011;9213;50.858;3.964;2022-08-19T11:21:05;11.30;;;8.93;;
18176;SDS011;9213;50.858;3.964;2022-08-19T11:23:33;10.30;;;9.25;;
18176;SDS011;9213;50.858;3.964;2022-08-19T11:26:00;9.80;;;8.80;;
18176;SDS011;9213;50.858;3.964;2022-08-19T11:28:27;10.05;;;7.43;;
18176;SDS011;9213;50.858;3.964;2022-08-19T11:30:54;8.48;;;7.45;;
18176;SDS011;9213;50.858;3.964;2022-08-19T11:33:23;7.85;;;7.05;;
18176;SDS011;9213;50.858;3.964;2022-08-19T11:35:51;7.88;;;7.15;;
18176;SDS011;9213;50.858;3.964;2022-08-19T11:38:18;7.70;;;7.00;;
18176;SDS011;9213;50.858;3.964;2022-08-19T11:40:45;6.88;;;6.28;;
18176;SDS011;9213;50.858;3.964;2022-08-19T11:43:20;7.13;;;6.50;;
18176;SDS011;9213;50.858;3.964;2022-08-19T11:45:47;8.40;;;6.22;;
18176;SDS011;9213;50.858;3.964;2022-08-19T11:48:14;8.30;;;6.55;;
18176;SDS011;9213;50.858;3.964;2022-08-19T11:50:42;7.20;;;6.40;;
18176;SDS011;9213;50.858;3.964;2022-08-19T11:53:09;10.55;;;6.80;;
18176;SDS011;9213;50.858;3.964;2022-08-19T11:55:36;7.00;;;6.03;;
18176;SDS011;9213;50.858;3.964;2022-08-19T11:58:04;6.43;;;5.82;;
18176;SDS011;9213;50.858;3.964;2022-08-19T12:00:32;6.20;;;5.63;;
18176;SDS011;9213;50.858;3.964;2022-08-19T12:03:00;7.90;;;5.50;;
18176;SDS011;9213;50.858;3.964;2022-08-19T12:05:27;6.20;;;5.60;;
18176;SDS011;9213;50.858;3.964;2022-08-19T12:07:55;6.80;;;5.53;;
18176;SDS011;9213;50.858;3.964;2022-08-19T12:10:23;5.75;;;5.25;;
18176;SDS011;9213;50.858;3.964;2022-08-19T12:12:50;5.90;;;5.50;;
18176;SDS011;9213;50.858;3.964;2022-08-19T12:15:17;14.20;;;5.32;;
18176;SDS011;9213;50.858;3.964;2022-08-19T12:17:44;5.43;;;4.80;;
18176;SDS011;9213;50.858;3.964;2022-08-19T12:20:11;5.45;;;4.97;;
18176;SDS011;9213;50.858;3.964;2022-08-19T12:22:40;4.70;;;4.30;;
18176;SDS011;9213;50.858;3.964;2022-08-19T12:25:09;5.07;;;4.10;;
18176;SDS011;9213;50.858;3.964;2022-08-19T12:27:37;4.18;;;3.78;;
18176;SDS011;9213;50.858;3.964;2022-08-19T12:30:05;5.50;;;3.78;;
18176;SDS011;9213;50.858;3.964;2022-08-19T12:32:33;4.03;;;3.70;;
18176;SDS011;9213;50.858;3.964;2022-08-19T12:35:01;5.35;;;3.90;;
18176;SDS011;9213;50.858;3.964;2022-08-19T12:37:28;3.80;;;3.42;;
18176;SDS011;9213;50.858;3.964;2022-08-19T12:39:54;4.32;;;3.72;;
18176;SDS011;9213;50.858;3.964;2022-08-19T12:42:23;5.03;;;3.28;;
18176;SDS011;9213;50.858;3.964;2022-08-19T12:44:50;3.63;;;3.28;;
18176;SDS011;9213;50.858;3.964;2022-08-19T12:47:17;3.38;;;3.03;;
18176;SDS011;9213;50.858;3.964;2022-08-19T12:49:45;2.33;;;2.13;;
18176;SDS011;9213;50.858;3.964;2022-08-19T12:52:12;2.78;;;2.40;;
18176;SDS011;9213;50.858;3.964;2022-08-19T12:54:40;3.47;;;2.90;;
18176;SDS011;9213;50.858;3.964;2022-08-19T12:57:08;3.58;;;3.28;;
18176;SDS011;9213;50.858;3.964;2022-08-19T12:59:38;3.95;;;3.50;;
18176;SDS011;9213;50.858;3.964;2022-08-19T13:02:06;3.75;;;3.45;;
18176;SDS011;9213;50.858;3.964;2022-08-19T13:04:34;3.63;;;3.33;;
18176;SDS011;9213;50.858;3.964;2022-08-19T13:07:05;3.45;;;3.20;;
18176;SDS011;9213;50.858;3.964;2022-08-19T13:09:33;4.10;;;3.70;;
18176;SDS011;9213;50.858;3.964;2022-08-19T13:12:00;4.13;;;3.83;;
18176;SDS011;9213;50.858;3.964;2022-08-19T13:14:28;4.68;;;4.30;;
18176;SDS011;9213;50.858;3.964;2022-08-19T13:16:58;6.28;;;4.93;;
18176;SDS011;9213;50.858;3.964;2022-08-19T13:19:25;5.00;;;4.60;;
18176;SDS011;9213;50.858;3.964;2022-08-19T13:21:52;5.25;;;4.75;;
18176;SDS011;9213;50.858;3.964;2022-08-19T13:24:20;6.25;;;5.28;;
18176;SDS011;9213;50.858;3.964;2022-08-19T13:26:47;5.20;;;4.80;;
18176;SDS011;9213;50.858;3.964;2022-08-19T13:29:14;6.13;;;5.53;;
18176;SDS011;9213;50.858;3.964;2022-08-19T13:32:00;4.78;;;3.60;;
18176;SDS011;9213;50.858;3.964;2022-08-19T13:34:44;4.70;;;3.67;;
18176;SDS011;9213;50.858;3.964;2022-08-19T13:37:12;4.18;;;3.83;;
18176;SDS011;9213;50.858;3.964;2022-08-19T13:39:39;5.75;;;3.08;;
18176;SDS011;9213;50.858;3.964;2022-08-19T13:42:06;5.05;;;3.42;;
18176;SDS011;9213;50.858;3.964;2022-08-19T13:44:35;4.00;;;3.50;;
18176;SDS011;9213;50.858;3.964;2022-08-19T13:47:04;3.90;;;3.10;;
18176;SDS011;9213;50.858;3.964;2022-08-19T13:49:32;4.65;;;3.47;;
18176;SDS011;9213;50.858;3.964;2022-08-19T13:51:59;7.57;;;4.03;;
18176;SDS011;9213;50.858;3.964;2022-08-19T13:54:26;7.40;;;4.03;;
18176;SDS011;9213;50.858;3.964;2022-08-19T13:56:53;4.63;;;4.20;;
18176;SDS011;9213;50.858;3.964;2022-08-19T13:59:20;5.05;;;4.60;;
18176;SDS011;9213;50.858;3.964;2022-08-19T14:01:47;4.60;;;4.07;;
18176;SDS011;9213;50.858;3.964;2022-08-19T14:04:16;4.13;;;3.70;;
18176;SDS011;9213;50.858;3.964;2022-08-19T14:06:43;4.00;;;3.58;;
18176;SDS011;9213;50.858;3.964;2022-08-19T14:09:10;3.90;;;3.45;;
18176;SDS011;9213;50.858;3.964;2022-08-19T14:11:36;3.47;;;3.25;;
18176;SDS011;9213;50.858;3.964;2022-08-19T14:14:03;3.50;;;3.30;;
18176;SDS011;9213;50.858;3.964;2022-08-19T14:16:30;3.75;;;2.95;;
18176;SDS011;9213;50.858;3.964;2022-08-19T14:18:57;4.38;;;2.90;;
18176;SDS011;9213;50.858;3.964;2022-08-19T14:21:25;3.50;;;3.20;;
18176;SDS011;9213;50.858;3.964;2022-08-19T14:23:52;2.92;;;2.72;;
18176;SDS011;9213;50.858;3.964;2022-08-19T14:26:19;2.78;;;2.40;;
18176;SDS011;9213;50.858;3.964;2022-08-19T14:28:47;3.75;;;2.63;;
18176;SDS011;9213;50.858;3.964;2022-08-19T14:31:15;2.70;;;2.50;;
18176;SDS011;9213;50.858;3.964;2022-08-19T14:33:44;3.55;;;2.60;;
18176;SDS011;9213;50.858;3.964;2022-08-19T14:36:12;2.78;;;2.25;;
18176;SDS011;9213;50.858;3.964;2022-08-19T14:38:40;3.42;;;2.40;;
18176;SDS011;9213;50.858;3.964;2022-08-19T14:41:11;4.95;;;2.70;;
18176;SDS011;9213;50.858;3.964;2022-08-19T14:43:41;3.03;;;2.72;;
18176;SDS011;9213;50.858;3.964;2022-08-19T14:46:11;2.90;;;2.58;;
18176;SDS011;9213;50.858;3.964;2022-08-19T14:48:39;2.72;;;2.50;;
18176;SDS011;9213;50.858;3.964;2022-08-19T14:51:06;2.97;;;2.53;;